sensor_id;sensor_type;location;lat;lon;timestamp;P1;durP1;ratioP1;P2;durP2;ratioP2
48487;SDS011;34289;48.572;13.378;2022-10-26T00:01:34;58.53;;;6.78;;
48487;SDS011;34289;48.572;13.378;2022-10-26T00:04:15;63.03;;;6.97;;
48487;SDS011;34289;48.572;13.378;2022-10-26T00:07:04;66.35;;;6.80;;
48487;SDS011;34289;48.572;13.378;2022-10-26T00:09:37;91.40;;;6.57;;
48487;SDS011;34289;48.572;13.378;2022-10-26T00:12:07;105.82;;;7.57;;
48487;SDS011;34289;48.572;13.378;2022-10-26T00:15:09;110.00;;;7.40;;
48487;SDS011;34289;48.572;13.378;2022-10-26T00:17:36;99.60;;;7.90;;
48487;SDS011;34289;48.572;13.378;2022-10-26T00:20:13;29.30;;;6.05;;
48487;SDS011;34289;48.572;13.378;2022-10-26T00:22:49;35.03;;;5.97;;
48487;SDS011;34289;48.572;13.378;2022-10-26T00:25:23;35.20;;;6.03;;
48487;SDS011;34289;48.572;13.378;2022-10-26T00:28:00;55.63;;;6.40;;
48487;SDS011;34289;48.572;13.378;2022-10-26T00:30:51;32.58;;;5.45;;
48487;SDS011;34289;48.572;13.378;2022-10-26T00:33:26;51.25;;;7.82;;
48487;SDS011;34289;48.572;13.378;2022-10-26T00:36:17;46.45;;;6.20;;
48487;SDS011;34289;48.572;13.378;2022-10-26T00:38:59;29.35;;;6.10;;
48487;SDS011;34289;48.572;13.378;2022-10-26T00:41:47;42.05;;;7.10;;
48487;SDS011;34289;48.572;13.378;2022-10-26T00:47:44;94.97;;;7.43;;
48487;SDS011;34289;48.572;13.378;2022-10-26T00:50:42;24.85;;;6.18;;
48487;SDS011;34289;48.572;13.378;2022-10-26T00:53:34;111.30;;;9.85;;
48487;SDS011;34289;48.572;13.378;2022-10-26T00:56:23;69.80;;;8.90;;
48487;SDS011;34289;48.572;13.378;2022-10-26T00:59:42;95.28;;;6.80;;
48487;SDS011;34289;48.572;13.378;2022-10-26T01:03:01;63.38;;;6.10;;
48487;SDS011;34289;48.572;13.378;2022-10-26T01:06:00;65.97;;;6.72;;
48487;SDS011;34289;48.572;13.378;2022-10-26T01:08:50;36.67;;;7.00;;
48487;SDS011;34289;48.572;13.378;2022-10-26T01:11:44;114.60;;;8.13;;
48487;SDS011;34289;48.572;13.378;2022-10-26T01:14:15;81.18;;;6.13;;
48487;SDS011;34289;48.572;13.378;2022-10-26T01:20:38;95.43;;;6.95;;
48487;SDS011;34289;48.572;13.378;2022-10-26T01:32:34;106.05;;;7.82;;
48487;SDS011;34289;48.572;13.378;2022-10-26T01:41:58;51.88;;;7.13;;
48487;SDS011;34289;48.572;13.378;2022-10-26T01:44:57;28.33;;;6.88;;
48487;SDS011;34289;48.572;13.378;2022-10-26T01:47:48;44.45;;;9.40;;
48487;SDS011;34289;48.572;13.378;2022-10-26T01:50:16;22.45;;;5.97;;
48487;SDS011;34289;48.572;13.378;2022-10-26T01:53:18;29.75;;;6.63;;
48487;SDS011;34289;48.572;13.378;2022-10-26T01:55:48;16.08;;;6.32;;
48487;SDS011;34289;48.572;13.378;2022-10-26T02:05:09;6.50;;;4.95;;
48487;SDS011;34289;48.572;13.378;2022-10-26T02:11:29;10.88;;;6.43;;
48487;SDS011;34289;48.572;13.378;2022-10-26T02:14:17;13.30;;;6.00;;
48487;SDS011;34289;48.572;13.378;2022-10-26T02:17:49;6.10;;;4.85;;
48487;SDS011;34289;48.572;13.378;2022-10-26T02:21:11;9.18;;;5.55;;
48487;SDS011;34289;48.572;13.378;2022-10-26T02:23:58;13.52;;;5.63;;
48487;SDS011;34289;48.572;13.378;2022-10-26T02:26:47;5.43;;;4.78;;
48487;SDS011;34289;48.572;13.378;2022-10-26T02:29:54;6.18;;;4.88;;
48487;SDS011;34289;48.572;13.378;2022-10-26T02:32:57;17.02;;;5.63;;
48487;SDS011;34289;48.572;13.378;2022-10-26T02:36:11;39.30;;;6.38;;
48487;SDS011;34289;48.572;13.378;2022-10-26T02:39:15;16.27;;;5.13;;
48487;SDS011;34289;48.572;13.378;2022-10-26T02:42:30;9.88;;;5.32;;
48487;SDS011;34289;48.572;13.378;2022-10-26T02:45:27;6.60;;;5.07;;
48487;SDS011;34289;48.572;13.378;2022-10-26T02:48:19;6.50;;;5.50;;
48487;SDS011;34289;48.572;13.378;2022-10-26T02:50:59;7.97;;;6.38;;
48487;SDS011;34289;48.572;13.378;2022-10-26T02:53:50;8.15;;;5.80;;
48487;SDS011;34289;48.572;13.378;2022-10-26T02:56:32;6.35;;;5.75;;
48487;SDS011;34289;48.572;13.378;2022-10-26T02:59:40;13.07;;;7.88;;
48487;SDS011;34289;48.572;13.378;2022-10-26T03:02:33;13.45;;;7.95;;
48487;SDS011;34289;48.572;13.378;2022-10-26T03:08:09;11.55;;;6.82;;
48487;SDS011;34289;48.572;13.378;2022-10-26T03:10:42;15.48;;;7.40;;
48487;SDS011;34289;48.572;13.378;2022-10-26T03:13:33;12.88;;;7.93;;
48487;SDS011;34289;48.572;13.378;2022-10-26T03:16:19;19.25;;;7.28;;
48487;SDS011;34289;48.572;13.378;2022-10-26T03:18:46;14.73;;;8.25;;
48487;SDS011;34289;48.572;13.378;2022-10-26T03:21:20;9.27;;;6.85;;
48487;SDS011;34289;48.572;13.378;2022-10-26T03:24:20;13.65;;;6.93;;
48487;SDS011;34289;48.572;13.378;2022-10-26T03:27:34;12.88;;;8.27;;
48487;SDS011;34289;48.572;13.378;2022-10-26T03:31:24;11.27;;;6.65;;
48487;SDS011;34289;48.572;13.378;2022-10-26T03:34:01;9.55;;;6.55;;
48487;SDS011;34289;48.572;13.378;2022-10-26T03:36:47;7.25;;;6.43;;
48487;SDS011;34289;48.572;13.378;2022-10-26T03:40:11;9.95;;;6.25;;
48487;SDS011;34289;48.572;13.378;2022-10-26T03:43:00;8.98;;;6.18;;
48487;SDS011;34289;48.572;13.378;2022-10-26T03:45:36;8.57;;;5.75;;
48487;SDS011;34289;48.572;13.378;2022-10-26T03:48:26;10.43;;;6.15;;
48487;SDS011;34289;48.572;13.378;2022-10-26T03:50:59;6.82;;;5.72;;
48487;SDS011;34289;48.572;13.378;2022-10-26T03:53:48;5.93;;;5.28;;
48487;SDS011;34289;48.572;13.378;2022-10-26T03:56:21;10.85;;;5.30;;
48487;SDS011;34289;48.572;13.378;2022-10-26T03:59:03;12.45;;;6.50;;
48487;SDS011;34289;48.572;13.378;2022-10-26T04:01:30;11.60;;;7.88;;
48487;SDS011;34289;48.572;13.378;2022-10-26T04:04:12;11.18;;;8.98;;
48487;SDS011;34289;48.572;13.378;2022-10-26T04:07:01;13.25;;;7.78;;
48487;SDS011;34289;48.572;13.378;2022-10-26T04:09:28;9.70;;;7.30;;
48487;SDS011;34289;48.572;13.378;2022-10-26T04:12:27;16.50;;;8.00;;
48487;SDS011;34289;48.572;13.378;2022-10-26T04:15:04;9.30;;;6.03;;
48487;SDS011;34289;48.572;13.378;2022-10-26T04:18:14;7.63;;;6.10;;
48487;SDS011;34289;48.572;13.378;2022-10-26T04:21:16;6.57;;;5.88;;
48487;SDS011;34289;48.572;13.378;2022-10-26T04:24:20;15.57;;;6.80;;
48487;SDS011;34289;48.572;13.378;2022-10-26T04:26:54;8.82;;;6.00;;
48487;SDS011;34289;48.572;13.378;2022-10-26T04:29:23;6.40;;;5.70;;
48487;SDS011;34289;48.572;13.378;2022-10-26T04:31:59;6.72;;;5.53;;
48487;SDS011;34289;48.572;13.378;2022-10-26T04:34:57;6.40;;;5.25;;
48487;SDS011;34289;48.572;13.378;2022-10-26T04:37:35;5.00;;;4.50;;
48487;SDS011;34289;48.572;13.378;2022-10-26T04:40:22;6.60;;;5.03;;
48487;SDS011;34289;48.572;13.378;2022-10-26T04:42:58;5.40;;;4.82;;
48487;SDS011;34289;48.572;13.378;2022-10-26T04:45:57;5.50;;;4.90;;
48487;SDS011;34289;48.572;13.378;2022-10-26T04:48:38;11.10;;;5.82;;
48487;SDS011;34289;48.572;13.378;2022-10-26T04:51:15;8.95;;;5.18;;
48487;SDS011;34289;48.572;13.378;2022-10-26T04:54:07;6.82;;;4.82;;
48487;SDS011;34289;48.572;13.378;2022-10-26T04:56:50;6.07;;;5.22;;
48487;SDS011;34289;48.572;13.378;2022-10-26T04:59:46;10.15;;;4.93;;
48487;SDS011;34289;48.572;13.378;2022-10-26T05:02:14;8.20;;;5.63;;
48487;SDS011;34289;48.572;13.378;2022-10-26T05:05:09;6.05;;;5.47;;
48487;SDS011;34289;48.572;13.378;2022-10-26T05:11:12;6.60;;;5.75;;
48487;SDS011;34289;48.572;13.378;2022-10-26T05:14:10;6.63;;;5.47;;
48487;SDS011;34289;48.572;13.378;2022-10-26T05:16:46;10.90;;;5.22;;
48487;SDS011;34289;48.572;13.378;2022-10-26T05:19:26;11.63;;;5.45;;
48487;SDS011;34289;48.572;13.378;2022-10-26T05:21:57;7.43;;;5.25;;
48487;SDS011;34289;48.572;13.378;2022-10-26T05:24:37;11.55;;;6.10;;
48487;SDS011;34289;48.572;13.378;2022-10-26T05:27:29;10.35;;;6.68;;
48487;SDS011;34289;48.572;13.378;2022-10-26T05:33:07;11.00;;;6.55;;
48487;SDS011;34289;48.572;13.378;2022-10-26T05:35:44;9.90;;;5.95;;
48487;SDS011;34289;48.572;13.378;2022-10-26T05:38:36;9.90;;;7.13;;
48487;SDS011;34289;48.572;13.378;2022-10-26T05:41:12;8.73;;;6.63;;
48487;SDS011;34289;48.572;13.378;2022-10-26T05:43:45;9.65;;;6.75;;
48487;SDS011;34289;48.572;13.378;2022-10-26T05:46:51;8.65;;;6.13;;
48487;SDS011;34289;48.572;13.378;2022-10-26T05:49:28;7.30;;;6.60;;
48487;SDS011;34289;48.572;13.378;2022-10-26T05:52:22;8.43;;;5.68;;
48487;SDS011;34289;48.572;13.378;2022-10-26T05:55:04;6.88;;;6.18;;
48487;SDS011;34289;48.572;13.378;2022-10-26T06:06:47;13.15;;;6.05;;
48487;SDS011;34289;48.572;13.378;2022-10-26T06:09:30;7.05;;;6.35;;
48487;SDS011;34289;48.572;13.378;2022-10-26T06:13:00;7.07;;;6.05;;
48487;SDS011;34289;48.572;13.378;2022-10-26T06:18:56;6.20;;;5.60;;
48487;SDS011;34289;48.572;13.378;2022-10-26T06:25:27;11.43;;;5.88;;
48487;SDS011;34289;48.572;13.378;2022-10-26T06:31:00;11.38;;;5.97;;
48487;SDS011;34289;48.572;13.378;2022-10-26T06:33:26;6.22;;;5.15;;
48487;SDS011;34289;48.572;13.378;2022-10-26T06:36:06;6.07;;;5.47;;
48487;SDS011;34289;48.572;13.378;2022-10-26T06:38:34;9.70;;;6.15;;
48487;SDS011;34289;48.572;13.378;2022-10-26T06:41:02;15.82;;;5.88;;
48487;SDS011;34289;48.572;13.378;2022-10-26T06:43:30;8.77;;;5.53;;
48487;SDS011;34289;48.572;13.378;2022-10-26T06:51:19;10.75;;;5.80;;
48487;SDS011;34289;48.572;13.378;2022-10-26T06:53:50;9.15;;;5.75;;
48487;SDS011;34289;48.572;13.378;2022-10-26T06:56:27;9.38;;;6.43;;
48487;SDS011;34289;48.572;13.378;2022-10-26T06:58:53;6.05;;;5.15;;
48487;SDS011;34289;48.572;13.378;2022-10-26T07:01:23;8.52;;;5.85;;
48487;SDS011;34289;48.572;13.378;2022-10-26T07:03:48;6.57;;;5.88;;
48487;SDS011;34289;48.572;13.378;2022-10-26T07:06:14;9.55;;;6.32;;
48487;SDS011;34289;48.572;13.378;2022-10-26T07:08:39;12.35;;;6.10;;
48487;SDS011;34289;48.572;13.378;2022-10-26T07:11:05;8.48;;;5.45;;
48487;SDS011;34289;48.572;13.378;2022-10-26T07:13:31;7.80;;;5.63;;
48487;SDS011;34289;48.572;13.378;2022-10-26T07:15:56;12.13;;;5.85;;
48487;SDS011;34289;48.572;13.378;2022-10-26T07:18:22;14.00;;;5.30;;
48487;SDS011;34289;48.572;13.378;2022-10-26T07:20:47;5.85;;;5.25;;
48487;SDS011;34289;48.572;13.378;2022-10-26T07:23:13;7.05;;;5.00;;
48487;SDS011;34289;48.572;13.378;2022-10-26T07:25:40;7.45;;;4.55;;
48487;SDS011;34289;48.572;13.378;2022-10-26T07:28:06;7.22;;;5.55;;
48487;SDS011;34289;48.572;13.378;2022-10-26T07:30:34;10.73;;;5.75;;
48487;SDS011;34289;48.572;13.378;2022-10-26T07:33:01;9.25;;;5.43;;
48487;SDS011;34289;48.572;13.378;2022-10-26T07:35:45;7.95;;;5.40;;
48487;SDS011;34289;48.572;13.378;2022-10-26T07:38:11;13.80;;;5.50;;
48487;SDS011;34289;48.572;13.378;2022-10-26T07:40:37;9.52;;;4.90;;
48487;SDS011;34289;48.572;13.378;2022-10-26T07:43:03;9.98;;;5.07;;
48487;SDS011;34289;48.572;13.378;2022-10-26T07:45:31;7.80;;;5.05;;
48487;SDS011;34289;48.572;13.378;2022-10-26T07:47:56;9.25;;;5.85;;
48487;SDS011;34289;48.572;13.378;2022-10-26T07:50:22;7.63;;;4.68;;
48487;SDS011;34289;48.572;13.378;2022-10-26T07:52:48;6.32;;;5.15;;
48487;SDS011;34289;48.572;13.378;2022-10-26T07:55:14;7.45;;;4.50;;
48487;SDS011;34289;48.572;13.378;2022-10-26T07:57:40;6.25;;;4.60;;
48487;SDS011;34289;48.572;13.378;2022-10-26T08:00:06;10.30;;;4.85;;
48487;SDS011;34289;48.572;13.378;2022-10-26T08:02:33;8.23;;;5.00;;
48487;SDS011;34289;48.572;13.378;2022-10-26T08:05:02;5.78;;;5.03;;
48487;SDS011;34289;48.572;13.378;2022-10-26T08:07:28;5.47;;;4.75;;
48487;SDS011;34289;48.572;13.378;2022-10-26T08:09:54;8.05;;;4.30;;
48487;SDS011;34289;48.572;13.378;2022-10-26T08:12:19;9.30;;;5.55;;
48487;SDS011;34289;48.572;13.378;2022-10-26T08:14:45;6.38;;;4.78;;
48487;SDS011;34289;48.572;13.378;2022-10-26T08:17:11;8.10;;;5.45;;
48487;SDS011;34289;48.572;13.378;2022-10-26T08:19:36;13.93;;;6.57;;
48487;SDS011;34289;48.572;13.378;2022-10-26T08:22:02;10.93;;;5.40;;
48487;SDS011;34289;48.572;13.378;2022-10-26T08:24:28;7.20;;;5.85;;
48487;SDS011;34289;48.572;13.378;2022-10-26T08:26:54;12.40;;;5.43;;
48487;SDS011;34289;48.572;13.378;2022-10-26T08:29:19;6.28;;;5.55;;
48487;SDS011;34289;48.572;13.378;2022-10-26T08:31:48;7.05;;;5.55;;
48487;SDS011;34289;48.572;13.378;2022-10-26T08:34:14;7.25;;;4.85;;
48487;SDS011;34289;48.572;13.378;2022-10-26T08:36:39;8.00;;;4.90;;
48487;SDS011;34289;48.572;13.378;2022-10-26T08:39:05;5.47;;;4.60;;
48487;SDS011;34289;48.572;13.378;2022-10-26T08:43:57;8.63;;;4.75;;
48487;SDS011;34289;48.572;13.378;2022-10-26T08:49:17;6.65;;;4.75;;
48487;SDS011;34289;48.572;13.378;2022-10-26T08:51:48;7.10;;;5.10;;
48487;SDS011;34289;48.572;13.378;2022-10-26T08:56:53;12.55;;;5.55;;
48487;SDS011;34289;48.572;13.378;2022-10-26T09:02:17;7.47;;;5.72;;
48487;SDS011;34289;48.572;13.378;2022-10-26T09:04:43;7.85;;;4.90;;
48487;SDS011;34289;48.572;13.378;2022-10-26T09:15:56;10.60;;;5.50;;
48487;SDS011;34289;48.572;13.378;2022-10-26T09:29:03;12.82;;;5.00;;
48487;SDS011;34289;48.572;13.378;2022-10-26T09:31:32;9.80;;;4.85;;
48487;SDS011;34289;48.572;13.378;2022-10-26T09:36:29;12.23;;;4.85;;
48487;SDS011;34289;48.572;13.378;2022-10-26T09:39:00;8.40;;;5.28;;
48487;SDS011;34289;48.572;13.378;2022-10-26T09:41:42;9.77;;;5.28;;
48487;SDS011;34289;48.572;13.378;2022-10-26T09:49:44;10.20;;;4.88;;
48487;SDS011;34289;48.572;13.378;2022-10-26T09:52:13;10.52;;;5.72;;
48487;SDS011;34289;48.572;13.378;2022-10-26T09:54:40;10.40;;;6.22;;
48487;SDS011;34289;48.572;13.378;2022-10-26T09:57:05;16.25;;;6.35;;
48487;SDS011;34289;48.572;13.378;2022-10-26T09:59:33;14.38;;;6.25;;
48487;SDS011;34289;48.572;13.378;2022-10-26T10:05:20;15.68;;;7.80;;
48487;SDS011;34289;48.572;13.378;2022-10-26T10:07:51;11.63;;;6.53;;
48487;SDS011;34289;48.572;13.378;2022-10-26T10:10:19;9.77;;;6.70;;
48487;SDS011;34289;48.572;13.378;2022-10-26T10:12:46;16.60;;;6.78;;
48487;SDS011;34289;48.572;13.378;2022-10-26T10:15:22;9.02;;;6.65;;
48487;SDS011;34289;48.572;13.378;2022-10-26T10:17:49;11.15;;;6.30;;
48487;SDS011;34289;48.572;13.378;2022-10-26T10:20:17;9.23;;;6.20;;
48487;SDS011;34289;48.572;13.378;2022-10-26T10:22:52;10.18;;;5.97;;
48487;SDS011;34289;48.572;13.378;2022-10-26T10:25:52;14.63;;;6.18;;
48487;SDS011;34289;48.572;13.378;2022-10-26T10:28:22;8.80;;;6.13;;
48487;SDS011;34289;48.572;13.378;2022-10-26T10:30:57;11.75;;;6.15;;
48487;SDS011;34289;48.572;13.378;2022-10-26T10:33:34;11.27;;;7.82;;
48487;SDS011;34289;48.572;13.378;2022-10-26T10:36:05;11.07;;;7.00;;
48487;SDS011;34289;48.572;13.378;2022-10-26T10:38:39;10.52;;;6.03;;
48487;SDS011;34289;48.572;13.378;2022-10-26T10:41:17;11.55;;;5.65;;
48487;SDS011;34289;48.572;13.378;2022-10-26T10:43:47;8.80;;;5.82;;
48487;SDS011;34289;48.572;13.378;2022-10-26T10:46:22;10.43;;;6.53;;
48487;SDS011;34289;48.572;13.378;2022-10-26T10:48:51;8.38;;;6.35;;
48487;SDS011;34289;48.572;13.378;2022-10-26T10:51:24;12.27;;;5.93;;
48487;SDS011;34289;48.572;13.378;2022-10-26T10:53:51;9.07;;;5.63;;
48487;SDS011;34289;48.572;13.378;2022-10-26T11:02:03;9.05;;;5.07;;
48487;SDS011;34289;48.572;13.378;2022-10-26T11:04:42;11.07;;;5.70;;
48487;SDS011;34289;48.572;13.378;2022-10-26T11:07:20;7.97;;;5.07;;
48487;SDS011;34289;48.572;13.378;2022-10-26T11:09:48;10.75;;;5.50;;
48487;SDS011;34289;48.572;13.378;2022-10-26T11:12:20;7.57;;;5.10;;
48487;SDS011;34289;48.572;13.378;2022-10-26T11:14:59;13.85;;;5.50;;
48487;SDS011;34289;48.572;13.378;2022-10-26T11:18:16;10.02;;;4.65;;
48487;SDS011;34289;48.572;13.378;2022-10-26T11:20:50;10.38;;;5.40;;
48487;SDS011;34289;48.572;13.378;2022-10-26T11:23:36;10.38;;;5.20;;
48487;SDS011;34289;48.572;13.378;2022-10-26T11:26:19;11.05;;;4.75;;
48487;SDS011;34289;48.572;13.378;2022-10-26T11:29:10;7.82;;;4.45;;
48487;SDS011;34289;48.572;13.378;2022-10-26T11:31:44;10.68;;;5.00;;
48487;SDS011;34289;48.572;13.378;2022-10-26T11:36:58;14.80;;;5.00;;
48487;SDS011;34289;48.572;13.378;2022-10-26T11:39:41;12.57;;;5.07;;
48487;SDS011;34289;48.572;13.378;2022-10-26T11:42:41;6.70;;;4.25;;
48487;SDS011;34289;48.572;13.378;2022-10-26T11:50:24;8.23;;;4.68;;
48487;SDS011;34289;48.572;13.378;2022-10-26T11:55:29;6.80;;;3.83;;
48487;SDS011;34289;48.572;13.378;2022-10-26T11:57:56;6.30;;;4.15;;
48487;SDS011;34289;48.572;13.378;2022-10-26T12:00:22;10.02;;;4.13;;
48487;SDS011;34289;48.572;13.378;2022-10-26T12:03:24;12.38;;;4.25;;
48487;SDS011;34289;48.572;13.378;2022-10-26T12:05:49;10.40;;;4.10;;
48487;SDS011;34289;48.572;13.378;2022-10-26T12:13:35;14.13;;;4.35;;
48487;SDS011;34289;48.572;13.378;2022-10-26T12:16:15;7.90;;;3.67;;
48487;SDS011;34289;48.572;13.378;2022-10-26T12:18:50;13.18;;;5.10;;
48487;SDS011;34289;48.572;13.378;2022-10-26T12:21:23;7.43;;;3.42;;
48487;SDS011;34289;48.572;13.378;2022-10-26T12:24:01;7.55;;;3.42;;
48487;SDS011;34289;48.572;13.378;2022-10-26T12:26:57;9.93;;;3.67;;
48487;SDS011;34289;48.572;13.378;2022-10-26T12:31:56;6.50;;;3.55;;
48487;SDS011;34289;48.572;13.378;2022-10-26T12:34:22;6.60;;;4.10;;
48487;SDS011;34289;48.572;13.378;2022-10-26T12:57:40;11.32;;;4.10;;
48487;SDS011;34289;48.572;13.378;2022-10-26T13:00:22;7.88;;;4.18;;
48487;SDS011;34289;48.572;13.378;2022-10-26T13:08:23;7.65;;;3.70;;
48487;SDS011;34289;48.572;13.378;2022-10-26T13:11:00;13.80;;;4.25;;
48487;SDS011;34289;48.572;13.378;2022-10-26T13:13:50;6.68;;;3.80;;
48487;SDS011;34289;48.572;13.378;2022-10-26T13:16:17;6.78;;;4.10;;
48487;SDS011;34289;48.572;13.378;2022-10-26T13:18:44;8.60;;;3.85;;
48487;SDS011;34289;48.572;13.378;2022-10-26T13:21:17;8.23;;;3.95;;
48487;SDS011;34289;48.572;13.378;2022-10-26T13:26:23;11.13;;;3.67;;
48487;SDS011;34289;48.572;13.378;2022-10-26T13:28:50;10.60;;;3.80;;
48487;SDS011;34289;48.572;13.378;2022-10-26T13:33:56;8.65;;;3.35;;
48487;SDS011;34289;48.572;13.378;2022-10-26T13:36:30;9.25;;;3.45;;
48487;SDS011;34289;48.572;13.378;2022-10-26T13:39:44;6.88;;;3.63;;
48487;SDS011;34289;48.572;13.378;2022-10-26T13:41:53;4.50;;;3.10;;
48487;SDS011;34289;48.572;13.378;2022-10-26T13:44:24;8.70;;;3.53;;
48487;SDS011;34289;48.572;13.378;2022-10-26T13:47:01;10.65;;;3.65;;
48487;SDS011;34289;48.572;13.378;2022-10-26T13:49:49;10.80;;;3.58;;
48487;SDS011;34289;48.572;13.378;2022-10-26T13:52:18;5.05;;;3.40;;
48487;SDS011;34289;48.572;13.378;2022-10-26T13:54:55;12.27;;;4.28;;
48487;SDS011;34289;48.572;13.378;2022-10-26T13:57:31;7.00;;;3.65;;
48487;SDS011;34289;48.572;13.378;2022-10-26T14:02:43;10.45;;;4.45;;
48487;SDS011;34289;48.572;13.378;2022-10-26T14:05:09;6.55;;;4.22;;
48487;SDS011;34289;48.572;13.378;2022-10-26T14:07:51;10.40;;;5.00;;
48487;SDS011;34289;48.572;13.378;2022-10-26T14:10:29;11.35;;;3.70;;
48487;SDS011;34289;48.572;13.378;2022-10-26T14:13:00;6.57;;;3.63;;
48487;SDS011;34289;48.572;13.378;2022-10-26T14:15:37;8.38;;;3.55;;
48487;SDS011;34289;48.572;13.378;2022-10-26T14:18:22;5.32;;;3.40;;
48487;SDS011;34289;48.572;13.378;2022-10-26T14:24:26;6.20;;;3.60;;
48487;SDS011;34289;48.572;13.378;2022-10-26T14:26:53;5.70;;;3.85;;
48487;SDS011;34289;48.572;13.378;2022-10-26T14:29:20;6.07;;;3.83;;
48487;SDS011;34289;48.572;13.378;2022-10-26T14:31:48;14.02;;;4.80;;
48487;SDS011;34289;48.572;13.378;2022-10-26T14:34:14;14.75;;;3.40;;
48487;SDS011;34289;48.572;13.378;2022-10-26T14:36:47;11.75;;;3.70;;
48487;SDS011;34289;48.572;13.378;2022-10-26T14:41:57;6.78;;;3.25;;
48487;SDS011;34289;48.572;13.378;2022-10-26T14:44:25;14.93;;;5.00;;
48487;SDS011;34289;48.572;13.378;2022-10-26T14:46:51;7.38;;;3.50;;
48487;SDS011;34289;48.572;13.378;2022-10-26T14:49:19;8.27;;;4.70;;
48487;SDS011;34289;48.572;13.378;2022-10-26T14:51:57;8.88;;;4.85;;
48487;SDS011;34289;48.572;13.378;2022-10-26T14:54:25;8.23;;;4.53;;
48487;SDS011;34289;48.572;13.378;2022-10-26T14:56:52;8.52;;;5.00;;
48487;SDS011;34289;48.572;13.378;2022-10-26T14:59:25;12.05;;;4.90;;
48487;SDS011;34289;48.572;13.378;2022-10-26T15:01:54;12.02;;;4.30;;
48487;SDS011;34289;48.572;13.378;2022-10-26T15:07:06;7.47;;;4.63;;
48487;SDS011;34289;48.572;13.378;2022-10-26T15:09:48;8.02;;;4.15;;
48487;SDS011;34289;48.572;13.378;2022-10-26T15:12:19;11.02;;;4.00;;
48487;SDS011;34289;48.572;13.378;2022-10-26T15:14:49;9.07;;;4.22;;
48487;SDS011;34289;48.572;13.378;2022-10-26T15:17:23;6.85;;;4.00;;
48487;SDS011;34289;48.572;13.378;2022-10-26T15:19:51;5.55;;;3.78;;
48487;SDS011;34289;48.572;13.378;2022-10-26T15:22:25;9.95;;;4.50;;
48487;SDS011;34289;48.572;13.378;2022-10-26T15:25:01;10.48;;;3.90;;
48487;SDS011;34289;48.572;13.378;2022-10-26T15:27:29;10.30;;;3.95;;
48487;SDS011;34289;48.572;13.378;2022-10-26T15:30:10;10.77;;;5.00;;
48487;SDS011;34289;48.572;13.378;2022-10-26T15:32:50;5.32;;;3.90;;
48487;SDS011;34289;48.572;13.378;2022-10-26T15:35:24;11.75;;;4.95;;
48487;SDS011;34289;48.572;13.378;2022-10-26T15:37:53;19.58;;;5.45;;
48487;SDS011;34289;48.572;13.378;2022-10-26T15:40:19;23.25;;;6.57;;
48487;SDS011;34289;48.572;13.378;2022-10-26T15:42:47;10.95;;;6.13;;
48487;SDS011;34289;48.572;13.378;2022-10-26T15:45:25;10.90;;;4.80;;
48487;SDS011;34289;48.572;13.378;2022-10-26T15:47:53;10.80;;;4.78;;
48487;SDS011;34289;48.572;13.378;2022-10-26T15:50:22;10.13;;;5.95;;
48487;SDS011;34289;48.572;13.378;2022-10-26T15:52:49;18.48;;;6.38;;
48487;SDS011;34289;48.572;13.378;2022-10-26T15:55:18;17.05;;;5.70;;
48487;SDS011;34289;48.572;13.378;2022-10-26T15:57:44;16.92;;;5.43;;
48487;SDS011;34289;48.572;13.378;2022-10-26T16:00:13;9.57;;;5.72;;
48487;SDS011;34289;48.572;13.378;2022-10-26T16:02:41;12.05;;;6.90;;
48487;SDS011;34289;48.572;13.378;2022-10-26T16:05:08;10.07;;;5.75;;
48487;SDS011;34289;48.572;13.378;2022-10-26T16:07:36;17.70;;;8.25;;
48487;SDS011;34289;48.572;13.378;2022-10-26T16:10:02;16.83;;;9.63;;
48487;SDS011;34289;48.572;13.378;2022-10-26T16:12:28;43.80;;;20.23;;
48487;SDS011;34289;48.572;13.378;2022-10-26T16:14:53;27.08;;;12.55;;
48487;SDS011;34289;48.572;13.378;2022-10-26T16:17:19;20.67;;;11.45;;
48487;SDS011;34289;48.572;13.378;2022-10-26T16:19:46;19.85;;;9.35;;
48487;SDS011;34289;48.572;13.378;2022-10-26T16:22:11;14.95;;;6.28;;
48487;SDS011;34289;48.572;13.378;2022-10-26T16:24:37;8.60;;;4.90;;
48487;SDS011;34289;48.572;13.378;2022-10-26T16:27:03;15.32;;;6.63;;
48487;SDS011;34289;48.572;13.378;2022-10-26T16:29:29;8.65;;;4.75;;
48487;SDS011;34289;48.572;13.378;2022-10-26T16:31:57;8.68;;;4.55;;
48487;SDS011;34289;48.572;13.378;2022-10-26T16:34:23;9.30;;;3.95;;
48487;SDS011;34289;48.572;13.378;2022-10-26T16:36:49;9.23;;;4.18;;
48487;SDS011;34289;48.572;13.378;2022-10-26T16:39:14;14.32;;;3.83;;
48487;SDS011;34289;48.572;13.378;2022-10-26T16:41:40;7.00;;;3.50;;
48487;SDS011;34289;48.572;13.378;2022-10-26T16:44:06;8.98;;;3.95;;
48487;SDS011;34289;48.572;13.378;2022-10-26T16:46:31;16.85;;;8.23;;
48487;SDS011;34289;48.572;13.378;2022-10-26T16:48:57;48.15;;;29.95;;
48487;SDS011;34289;48.572;13.378;2022-10-26T16:51:24;14.00;;;8.80;;
48487;SDS011;34289;48.572;13.378;2022-10-26T16:53:52;18.23;;;9.25;;
48487;SDS011;34289;48.572;13.378;2022-10-26T16:56:21;5.93;;;4.78;;
48487;SDS011;34289;48.572;13.378;2022-10-26T16:58:48;27.05;;;17.42;;
48487;SDS011;34289;48.572;13.378;2022-10-26T17:01:15;15.73;;;8.38;;
48487;SDS011;34289;48.572;13.378;2022-10-26T17:03:42;20.40;;;10.90;;
48487;SDS011;34289;48.572;13.378;2022-10-26T17:06:11;17.52;;;9.88;;
48487;SDS011;34289;48.572;13.378;2022-10-26T17:08:40;16.95;;;10.20;;
48487;SDS011;34289;48.572;13.378;2022-10-26T17:11:07;13.98;;;8.15;;
48487;SDS011;34289;48.572;13.378;2022-10-26T17:13:34;10.40;;;5.78;;
48487;SDS011;34289;48.572;13.378;2022-10-26T17:16:11;13.70;;;8.77;;
48487;SDS011;34289;48.572;13.378;2022-10-26T17:18:39;21.85;;;12.15;;
48487;SDS011;34289;48.572;13.378;2022-10-26T17:21:06;14.82;;;8.95;;
48487;SDS011;34289;48.572;13.378;2022-10-26T17:23:33;10.90;;;7.47;;
48487;SDS011;34289;48.572;13.378;2022-10-26T17:26:15;21.35;;;7.95;;
48487;SDS011;34289;48.572;13.378;2022-10-26T17:28:40;12.95;;;6.15;;
48487;SDS011;34289;48.572;13.378;2022-10-26T17:31:11;19.58;;;5.47;;
48487;SDS011;34289;48.572;13.378;2022-10-26T17:33:39;9.45;;;5.18;;
48487;SDS011;34289;48.572;13.378;2022-10-26T17:36:11;15.57;;;6.53;;
48487;SDS011;34289;48.572;13.378;2022-10-26T17:38:38;8.73;;;5.50;;
48487;SDS011;34289;48.572;13.378;2022-10-26T17:41:06;10.75;;;5.97;;
48487;SDS011;34289;48.572;13.378;2022-10-26T17:43:40;14.65;;;8.40;;
48487;SDS011;34289;48.572;13.378;2022-10-26T17:46:17;17.25;;;6.80;;
48487;SDS011;34289;48.572;13.378;2022-10-26T17:48:45;12.77;;;5.70;;
48487;SDS011;34289;48.572;13.378;2022-10-26T17:51:14;10.90;;;6.45;;
48487;SDS011;34289;48.572;13.378;2022-10-26T17:53:41;14.90;;;6.80;;
48487;SDS011;34289;48.572;13.378;2022-10-26T17:58:52;11.23;;;7.00;;
48487;SDS011;34289;48.572;13.378;2022-10-26T18:01:19;12.38;;;8.93;;
48487;SDS011;34289;48.572;13.378;2022-10-26T18:03:46;17.70;;;9.15;;
48487;SDS011;34289;48.572;13.378;2022-10-26T18:06:11;16.33;;;8.85;;
48487;SDS011;34289;48.572;13.378;2022-10-26T18:08:37;15.13;;;7.50;;
48487;SDS011;34289;48.572;13.378;2022-10-26T18:11:04;11.85;;;6.90;;
48487;SDS011;34289;48.572;13.378;2022-10-26T18:13:35;16.48;;;6.97;;
48487;SDS011;34289;48.572;13.378;2022-10-26T18:16:11;9.65;;;6.03;;
48487;SDS011;34289;48.572;13.378;2022-10-26T18:18:38;11.65;;;6.15;;